Flight Track Log - Related Links

Times and Time Zones

All times are in EDT time to prevent confusion due to time zone crossing. See the SWA1802 flight status page for this flight to view local times or setup timezone preferences in your user account.

Time Position Orientation Groundspeed Altitude Reporting Facility
EDT Latitude Longitude Course Direction KTS MPH feet Rate Location/Type
Sun 06:26:02 PM 41.7980 -87.7720 298° West 151 174 1,700  Level FlightAware ADS-B
Sun 06:26:10 PM 41.8000 -87.7800 289° West 161 185 2,000 1,350 Climbing FlightAware ADS-B
Sun 06:26:42 PM 41.7920 -87.8150 253° West 212 244 2,600 1,700 Climbing FlightAware ADS-B
Sun 06:27:10 PM 41.7800 -87.8510 246° West 229 264 3,700 1,556 Climbing FlightAware ADS-B
Sun 06:27:36 PM 41.7740 -87.8880 258° West 247 284 4,000 480 Climbing FlightAware ADS-B
Sun 06:28:00 PM 41.7720 -87.9260 266° West 249 287 4,100 1,269 Climbing FlightAware ADS-B
Sun 06:28:28 PM 41.7700 -87.9700 267° West 256 295 5,100 2,786 Climbing FlightAware ADS-B
Sun 06:28:56 PM 41.7680 -88.0140 267° West 261 300 6,700 3,214 Climbing FlightAware ADS-B
Sun 06:29:24 PM 41.7660 -88.0610 267° West 271 312 8,100 3,107 Climbing FlightAware ADS-B
Sun 06:29:52 PM 41.7630 -88.1080 265° West 272 313 9,600 3,000 Climbing FlightAware ADS-B
Sun 06:30:32 PM 41.7590 -88.1760 266° West 283 326 11,500 1,800 Climbing FlightAware ADS-B
Sun 06:31:12 PM 41.7550 -88.2460 266° West 284 327 12,000 776 Climbing FlightAware ADS-B
Sun 06:31:57 PM 41.7490 -88.3320 265° West 339 390 12,600 1,341 Climbing FlightAware ADS-B
Sun 06:32:37 PM 41.7440 -88.4200 266° West 363 418 13,900 2,368 Climbing FlightAware ADS-B
Sun 06:33:13 PM 41.7370 -88.5010 263° West 367 422 15,600 2,550 Climbing FlightAware ADS-B
Sun 06:33:57 PM 41.7190 -88.6010 256° West 383 441 17,300 2,325 Climbing FlightAware ADS-B
Sun 06:34:33 PM 41.7030 -88.6840 256° West 386 444 18,700 2,400 Climbing FlightAware ADS-B
Sun 06:35:17 PM 41.6840 -88.7870 256° West 390 449 20,500 2,114 Climbing FlightAware ADS-B
Sun 06:36:01 PM 41.6650 -88.8890 256° West 399 459 21,800 1,773 Climbing FlightAware ADS-B
Sun 06:36:45 PM 41.6440 -88.9980 256° West 408 470 23,100 1,786 Climbing FlightAware ADS-B
Sun 06:37:25 PM 41.6260 -89.0940 256° West 411 473 24,300 1,737 Climbing FlightAware ADS-B
Sun 06:38:01 PM 41.6090 -89.1840 256° West 415 478 25,300 1,579 Climbing FlightAware ADS-B
Sun 06:38:41 PM 41.5900 -89.2830 256° West 420 483 26,300 1,500 Climbing FlightAware ADS-B
Sun 06:39:17 PM 41.5730 -89.3720 256° West 421 484 27,200 1,575 Climbing FlightAware ADS-B
Sun 06:40:01 PM 41.5520 -89.4800 255° West 417 480 28,400 1,786 Climbing FlightAware ADS-B
Sun 06:40:41 PM 41.5330 -89.5780 256° West 410 472 29,700 1,615 Climbing FlightAware ADS-B
Sun 06:41:19 PM 41.5150 -89.6700 255° West 411 473 30,500 1,326 Climbing FlightAware ADS-B
Sun 06:42:07 PM 41.4920 -89.7890 256° West 408 470 31,600 1,326 Climbing FlightAware ADS-B
Sun 06:42:45 PM 41.4740 -89.8790 255° West 406 467 32,400 1,340 Climbing FlightAware ADS-B
Sun 06:43:41 PM 41.4470 -90.0150 255° West 398 458 33,700 1,353 Climbing FlightAware ADS-B
Sun 06:44:27 PM 41.4250 -90.1230 255° West 392 451 34,700 1,184 Climbing FlightAware ADS-B
Sun 06:44:57 PM 41.4110 -90.1950 255° West 391 450 35,200 868 Climbing FlightAware ADS-B
Sun 06:45:43 PM 41.3910 -90.2960 255° West 393 452 35,800 490 Climbing FlightAware ADS-B
Sun 06:46:35 PM 41.3650 -90.4240 255° West 395 455 36,000 132 Climbing FlightAware ADS-B
Sun 06:47:14 PM 41.3460 -90.5160 255° West 395 455 36,000  Level FlightAware ADS-B
Sun 06:47:54 PM 41.3270 -90.6090 255° West 393 452 36,000  Level FlightAware ADS-B
Sun 06:48:35 PM 41.3020 -90.7020 250° West 400 460 36,000  Level FlightAware ADS-B
Sun 06:49:09 PM 41.2800 -90.7760 248° West 399 459 36,000  Level FlightAware ADS-B
Sun 06:49:54 PM 41.2500 -90.8800 249° West 397 457 36,000  Level FlightAware ADS-B
Sun 06:50:35 PM 41.2220 -90.9740 248° West 395 455 36,000  Level FlightAware ADS-B
Sun 06:51:15 PM 41.1950 -91.0650 249° West 393 452 36,000  Level FlightAware ADS-B
Sun 06:52:03 PM 41.1630 -91.1710 248° West 392 451 36,000  Level FlightAware ADS-B
Sun 06:52:43 PM 41.1360 -91.2610 248° West 392 451 36,000  Level FlightAware ADS-B
Sun 06:53:27 PM 41.1070 -91.3590 249° West 393 452 36,000  Level FlightAware ADS-B
Sun 06:53:59 PM 41.0850 -91.4310 248° West 393 452 36,000  Level FlightAware ADS-B
Sun 06:54:40 PM 41.0580 -91.5220 249° West 394 453 36,000  Level FlightAware ADS-B
Sun 06:55:23 PM 41.0290 -91.6190 248° West 394 453 36,000  Level FlightAware ADS-B
Sun 06:56:08 PM 40.9970 -91.7230 248° West 397 457 36,000  Level FlightAware ADS-B
Sun 06:57:02 PM 40.9600 -91.8420 248° West 400 460 36,000  Level FlightAware ADS-B
Sun 06:57:43 PM 40.9320 -91.9350 248° West 401 461 36,000  Level FlightAware ADS-B
Sun 06:58:26 PM 40.9020 -92.0320 248° West 402 463 36,000  Level FlightAware ADS-B
Sun 06:59:02 PM 40.8760 -92.1170 248° West 403 464 36,000  Level FlightAware ADS-B
Sun 06:59:41 PM 40.8490 -92.2040 248° West 400 460 36,000  Level FlightAware ADS-B
Sun 07:00:31 PM 40.8290 -92.3200 257° West 386 444 36,000  Level FlightAware ADS-B
Sun 07:01:14 PM 40.8170 -92.4120 260° West 387 445 36,000  Level FlightAware ADS-B
Sun 07:01:54 PM 40.8030 -92.5120 260° West 386 444 36,000  Level FlightAware ADS-B
Sun 07:02:34 PM 40.7920 -92.5990 261° West 386 444 36,000  Level FlightAware ADS-B
Sun 07:03:14 PM 40.7780 -92.6980 259° West 386 444 36,000  Level FlightAware ADS-B
Sun 07:03:54 PM 40.7660 -92.7880 260° West 386 444 36,000  Level FlightAware ADS-B
Sun 07:04:36 PM 40.7520 -92.8870 259° West 385 443 36,000  Level FlightAware ADS-B
Sun 07:05:20 PM 40.7380 -92.9870 260° West 384 442 36,000  Level FlightAware ADS-B
Sun 07:06:01 PM 40.7250 -93.0790 259° West 384 442 36,000  Level FlightAware ADS-B
Sun 07:06:59 PM 40.7060 -93.2150 260° West 385 443 36,000  Level FlightAware ADS-B
Sun 07:07:34 PM 40.6950 -93.2930 259° West 385 443 36,000  Level FlightAware ADS-B
Sun 07:08:08 PM 40.6830 -93.3730 259° West 385 443 36,000  Level FlightAware ADS-B
Sun 07:08:54 PM 40.6680 -93.4790 259° West 386 444 36,000  Level FlightAware ADS-B
Sun 07:09:53 PM 40.6510 -93.5990 259° West 386 444 36,000  Level FlightAware ADS-B
Sun 07:10:40 PM 40.6330 -93.7220 259° West 388 447 36,000  Level FlightAware ADS-B
Sun 07:11:20 PM 40.6210 -93.8070 259° West 388 447 36,000  Level FlightAware ADS-B
Sun 07:12:18 PM 40.5990 -93.9530 259° West 391 450 36,000  Level FlightAware ADS-B
Sun 07:13:02 PM 40.5820 -94.0540 258° West 391 450 36,000  Level FlightAware ADS-B
Sun 07:13:38 PM 40.5680 -94.1380 258° West 392 451 36,000  Level FlightAware ADS-B
Sun 07:14:27 PM 40.5490 -94.2510 258° West 392 451 36,000  Level FlightAware ADS-B
Sun 07:14:58 PM 40.5370 -94.3240 258° West 392 451 36,000  Level FlightAware ADS-B
Sun 07:15:38 PM 40.5210 -94.4150 257° West 393 452 36,000  Level FlightAware ADS-B
Sun 07:16:24 PM 40.5030 -94.5240 258° West 394 453 36,000  Level FlightAware ADS-B
Sun 07:16:56 PM 40.4900 -94.5950 256° West 393 452 36,000  Level FlightAware ADS-B
Sun 07:17:49 PM 40.4700 -94.7130 257° West 393 452 36,000  Level FlightAware ADS-B
Sun 07:18:36 PM 40.4500 -94.8310 257° West 393 452 36,000  Level FlightAware ADS-B
Sun 07:19:19 PM 40.4330 -94.9280 257° West 392 451 36,000  Level FlightAware ADS-B
Sun 07:19:57 PM 40.4190 -95.0030 256° West 392 451 36,000  Level FlightAware ADS-B
Sun 07:21:23 PM 40.3820 -95.2160 257° West 394 453 36,000  Level FlightAware ADS-B
Sun 07:22:02 PM 40.3670 -95.2930 256° West 394 453 36,000  Level FlightAware ADS-B
Sun 07:22:38 PM 40.3540 -95.3640 257° West 394 453 36,000  Level FlightAware ADS-B
Sun 07:23:26 PM 40.3360 -95.4580 256° West 394 453 36,000  Level FlightAware ADS-B
Sun 07:23:59 PM 40.3170 -95.5730 258° West 36,000  Level FlightAware ADS-B
Sun 07:25:19 PM 40.2840 -95.7550 257° West 400 460 36,000  Level FlightAware ADS-B
Sun 07:25:59 PM 40.2700 -95.8360 257° West 400 460 36,000  Level FlightAware ADS-B
Sun 07:26:55 PM 40.2730 -95.8120 81° East 402 463 36,000  Level FlightAware ADS-B
Sun 07:27:59 PM 40.2700 -95.8320 259° West 402 463 36,000  Level FlightAware ADS-B
Sun 07:28:35 PM 40.2560 -95.9040 256° West 402 463 36,000  Level FlightAware ADS-B
Sun 07:29:14 PM 40.1770 -96.3160 256° West 404 465 36,000  Level FlightAware ADS-B
Sun 07:29:49 PM 40.1600 -96.3940 254° West 404 465 36,000  Level FlightAware ADS-B
Sun 07:30:39 PM 40.1380 -96.4940 254° West 404 465 36,000  Level FlightAware ADS-B
Sun 07:31:15 PM 40.1220 -96.5660 254° West 404 465 36,000  Level FlightAware ADS-B
Sun 07:32:03 PM 40.1730 -96.3370 74° East 401 461 36,000  Level FlightAware ADS-B
Sun 07:32:51 PM 40.0700 -96.8090 254° West 396 456 36,000  Level FlightAware ADS-B
Sun 07:33:48 PM 40.0570 -96.8660 253° West 396 456 36,000  Level FlightAware ADS-B
Sun 07:34:34 PM 40.0370 -96.9560 254° West 396 456 36,000  Level FlightAware ADS-B
Sun 07:35:31 PM 40.0700 -96.8090 74° East 396 456 36,000  Level FlightAware ADS-B
Sun 07:36:11 PM 40.0520 -96.8870 253° West 396 456 36,000  Level FlightAware ADS-B
Sun 07:37:11 PM 39.9360 -97.4040 254° West 398 458 36,000  Level FlightAware ADS-B
Sun 07:38:04 PM 39.9050 -97.5450 254° West 401 461 36,000  Level FlightAware ADS-B
Sun 07:38:50 PM 39.8800 -97.6540 253° West 401 461 36,000  Level FlightAware ADS-B
Sun 07:39:30 PM 39.8600 -97.7430 254° West 402 463 36,000  Level FlightAware ADS-B
Sun 07:40:14 PM 39.8360 -97.8450 253° West 402 463 36,000  Level FlightAware ADS-B
Sun 07:40:46 PM 39.8190 -97.9190 253° West 403 464 36,000  Level FlightAware ADS-B
Sun 07:41:42 PM 39.7890 -98.0490 253° West 403 464 36,000  Level FlightAware ADS-B
Sun 07:42:23 PM 39.7690 -98.1340 253° West 404 465 36,000  Level FlightAware ADS-B
Sun 07:42:59 PM 39.7520 -98.2060 253° West 404 465 36,000  Level FlightAware ADS-B
Sun 07:44:12 PM 39.7110 -98.3770 253° West 405 466 36,000  Level FlightAware ADS-B
Sun 07:44:49 PM 39.6930 -98.4490 252° West 405 466 36,000  Level FlightAware ADS-B
Sun 07:45:37 PM 39.6690 -98.5440 252° West 405 466 36,000  Level FlightAware ADS-B
Sun 07:46:13 PM 39.6510 -98.6150 252° West 405 466 36,000  Level FlightAware ADS-B
Sun 07:47:01 PM 39.6280 -98.7090 252° West 405 466 36,000  Level FlightAware ADS-B
Sun 07:47:37 PM 39.6100 -98.7800 252° West 405 466 36,000  Level FlightAware ADS-B
Sun 07:48:13 PM 39.5920 -98.8510 252° West 405 466 36,000  Level FlightAware ADS-B
Sun 07:48:50 PM 39.5740 -98.9230 252° West 405 466 36,000  Level FlightAware ADS-B
Sun 07:49:36 PM 39.5510 -99.0140 252° West 405 466 36,000  Level FlightAware ADS-B
Sun 07:50:13 PM 39.5330 -99.0860 252° West 405 466 36,000  Level FlightAware ADS-B
Sun 07:50:49 PM 39.5150 -99.1570 252° West 405 466 36,000  Level FlightAware ADS-B
Sun 07:51:37 PM 39.4920 -99.2510 252° West 405 466 36,000  Level FlightAware ADS-B
Sun 07:52:13 PM 39.4740 -99.3220 252° West 405 466 36,000  Level FlightAware ADS-B
Sun 07:52:43 PM 39.4319 -99.5364 252° West 399 459 36,000  Level Denver Center
Sun 07:52:51 PM 39.4550 -99.3970 252° West 405 466 36,000  Level FlightAware ADS-B
Sun 07:53:46 PM 39.3881 -99.7125 252° West 403 464 36,000  Level Denver Center
Sun 07:54:47 PM 39.3550 -99.8439 252° West 403 464 36,000  Level Denver Center
Sun 07:55:49 PM 39.3164 -99.9981 252° West 404 465 36,000  Level Denver Center
Sun 07:56:51 PM 39.2828 -100.1319 252° West 407 468 36,000  Level Denver Center
Sun 07:57:53 PM 39.2456 -100.2850 253° West 403 464 36,000  Level Denver Center
Sun 07:58:55 PM 39.2181 -100.4167 255° West 398 458 36,000  Level Denver Center
Sun 07:59:57 PM 39.1858 -100.5719 255° West 401 461 36,000  Level Denver Center
Sun 08:00:59 PM 39.1583 -100.7011 255° West 393 452 36,000  Level Denver Center
Sun 08:02:01 PM 39.1300 -100.8317 254° West 394 453 36,000  Level Denver Center
Sun 08:03:03 PM 39.0964 -100.9875 255° West 402 463 36,000  Level Denver Center
Sun 08:04:05 PM 39.0678 -101.1222 255° West 407 468 36,000  Level Denver Center
Sun 08:05:07 PM 39.0344 -101.2767 255° West 404 465 36,000  Level Denver Center
Sun 08:06:09 PM 39.0044 -101.4114 254° West 397 457 36,000  Level Denver Center
Sun 08:07:11 PM 38.9711 -101.5636 254° West 398 458 36,000  Level Denver Center
Sun 08:12:18 PM 38.8160 -102.2520 254° West 390 449 36,000  Level FlightAware ADS-B
Sun 08:13:00 PM 38.7950 -102.3440 254° West 390 449 36,000  Level FlightAware ADS-B
Sun 08:13:40 PM 38.7740 -102.4340 253° West 391 450 36,000  Level FlightAware ADS-B
Sun 08:14:24 PM 38.7520 -102.5320 254° West 392 451 36,000  Level FlightAware ADS-B
Sun 08:15:06 PM 38.7290 -102.6240 252° West 395 455 36,000  Level FlightAware ADS-B
Sun 08:15:46 PM 38.6950 -102.7090 243° Southwest 398 458 36,000  Level FlightAware ADS-B
Sun 08:16:30 PM 38.6560 -102.7970 240° Southwest 401 461 36,000  Level FlightAware ADS-B
Sun 08:17:10 PM 38.6190 -102.8810 241° Southwest 400 460 36,000  Level FlightAware ADS-B
Sun 08:17:54 PM 38.5810 -102.9730 242° Southwest 402 463 36,000  Level FlightAware ADS-B
Sun 08:18:32 PM 38.5480 -103.0530 242° Southwest 403 464 36,000  Level FlightAware ADS-B
Sun 08:19:18 PM 38.5080 -103.1490 242° Southwest 406 467 36,000  Level FlightAware ADS-B
Sun 08:20:00 PM 38.4700 -103.2400 242° Southwest 410 472 36,000  Level FlightAware ADS-B
Sun 08:20:34 PM 38.4410 -103.3110 242° Southwest 411 473 36,000  Level FlightAware ADS-B
Sun 08:21:16 PM 38.4030 -103.4030 242° Southwest 412 474 36,000  Level FlightAware ADS-B
Sun 08:21:56 PM 38.3680 -103.4880 242° Southwest 414 476 36,000  Level FlightAware ADS-B
Sun 08:22:38 PM 38.3310 -103.5820 243° Southwest 412 474 36,000  Level FlightAware ADS-B
Sun 08:23:14 PM 38.3120 -103.6630 253° West 410 472 36,000  Level FlightAware ADS-B
Sun 08:23:59 PM 38.2890 -103.7630 254° West 410 472 36,000  Level FlightAware ADS-B
Sun 08:24:32 PM 38.2720 -103.8430 255° West 410 472 36,000  Level FlightAware ADS-B
Sun 08:25:16 PM 38.2480 -103.9470 254° West 410 472 36,000  Level FlightAware ADS-B
Sun 08:25:56 PM 38.2310 -104.0260 255° West 410 472 36,000 714 Level FlightAware ADS-B
Sun 08:26:40 PM 38.2060 -104.1360 254° West 402 463 37,000 667 Climbing FlightAware ADS-B
Sun 08:27:26 PM 38.1820 -104.2420 254° West 403 464 37,000 130 Level FlightAware ADS-B
Sun 08:28:12 PM 38.1600 -104.3350 253° West 401 461 37,200 645 Climbing FlightAware ADS-B
Sun 08:28:59 PM 38.1340 -104.4510 254° West 395 455 38,000 558 Climbing FlightAware ADS-B
Sun 08:29:38 PM 38.1140 -104.5370 254° West 395 455 38,000  Level FlightAware ADS-B
Sun 08:30:14 PM 38.0960 -104.6180 254° West 397 457 38,000  Level FlightAware ADS-B
Sun 08:30:53 PM 38.0780 -104.6930 253° West 397 457 38,000  Level FlightAware ADS-B
Sun 08:31:34 PM 38.0540 -104.7980 254° West 398 458 38,000  Level FlightAware ADS-B
Sun 08:32:20 PM 38.0310 -104.8960 253° West 399 459 38,000  Level FlightAware ADS-B
Sun 08:32:56 PM 38.0120 -104.9770 253° West 399 459 38,000  Level FlightAware ADS-B
Sun 08:33:42 PM 37.9870 -105.0820 253° West 397 457 38,000  Level FlightAware ADS-B
Sun 08:34:28 PM 37.9630 -105.1850 254° West 395 455 38,000  Level FlightAware ADS-B
Sun 08:35:03 PM 37.9440 -105.2630 253° West 395 455 38,000  Level FlightAware ADS-B
Sun 08:35:44 PM 37.9230 -105.3520 253° West 394 453 38,000  Level FlightAware ADS-B
Sun 08:36:25 PM 37.9020 -105.4390 253° West 395 455 38,000  Level FlightAware ADS-B
Sun 08:37:00 PM 37.8830 -105.5210 254° West 393 452 38,000  Level FlightAware ADS-B
Sun 08:37:44 PM 37.8600 -105.6160 253° West 393 452 38,000  Level FlightAware ADS-B
Sun 08:38:24 PM 37.8390 -105.7030 253° West 394 453 38,000  Level FlightAware ADS-B
Sun 08:38:58 PM 37.8200 -105.7790 252° West 395 455 38,000  Level FlightAware ADS-B
Sun 08:39:43 PM 37.7960 -105.8790 253° West 397 457 38,000  Level FlightAware ADS-B
Sun 08:40:20 PM 37.7760 -105.9610 253° West 396 456 38,000  Level FlightAware ADS-B
Sun 08:41:05 PM 37.7520 -106.0600 253° West 396 456 38,000  Level FlightAware ADS-B
Sun 08:41:49 PM 37.7280 -106.1590 253° West 396 456 38,000  Level FlightAware ADS-B
Sun 08:42:30 PM 37.7060 -106.2480 253° West 396 456 38,000  Level FlightAware ADS-B
Sun 08:43:10 PM 37.6840 -106.3330 252° West 397 457 38,000  Level FlightAware ADS-B
Sun 08:43:45 PM 37.6650 -106.4140 254° West 394 453 38,000  Level FlightAware ADS-B
Sun 08:44:30 PM 37.6400 -106.5110 252° West 394 453 38,000  Level FlightAware ADS-B
Sun 08:45:09 PM 37.6190 -106.5970 253° West 392 451 38,000  Level FlightAware ADS-B
Sun 08:45:50 PM 37.5960 -106.6850 252° West 393 452 38,000  Level FlightAware ADS-B
Sun 08:46:33 PM 37.5720 -106.7810 253° West 395 455 38,000  Level FlightAware ADS-B
Sun 08:47:17 PM 37.5480 -106.8770 253° West 396 456 38,000  Level FlightAware ADS-B
Sun 08:47:59 PM 37.5240 -106.9700 252° West 396 456 38,000  Level FlightAware ADS-B
Sun 08:48:35 PM 37.5040 -107.0480 252° West 397 457 38,000  Level FlightAware ADS-B
Sun 08:49:17 PM 37.4810 -107.1390 252° West 400 460 38,000  Level FlightAware ADS-B
Sun 08:49:58 PM 37.4580 -107.2290 252° West 401 461 38,000  Level FlightAware ADS-B
Sun 08:50:33 PM 37.4370 -107.3100 252° West 401 461 38,000  Level FlightAware ADS-B
Sun 08:51:13 PM 37.4140 -107.3980 252° West 400 460 38,000  Level FlightAware ADS-B
Sun 08:51:57 PM 37.3890 -107.4950 252° West 401 461 38,000  Level FlightAware ADS-B
Sun 08:52:36 PM 37.3680 -107.5780 252° West 401 461 38,000  Level FlightAware ADS-B
Sun 08:53:34 PM 37.3340 -107.7080 252° West 401 461 38,000  Level FlightAware ADS-B
Sun 08:54:14 PM 37.3110 -107.7950 252° West 401 461 38,000  Level FlightAware ADS-B
Sun 08:55:00 PM 37.2840 -107.8970 252° West 400 460 38,000  Level FlightAware ADS-B
Sun 08:55:35 PM 37.2640 -107.9720 251° West 399 459 38,000  Level FlightAware ADS-B
Sun 08:56:15 PM 37.2410 -108.0600 252° West 399 459 38,000  Level FlightAware ADS-B
Sun 08:56:52 PM 37.2190 -108.1410 251° West 399 459 38,000  Level FlightAware ADS-B
Sun 08:57:34 PM 37.1940 -108.2360 252° West 398 458 38,000  Level FlightAware ADS-B
Sun 08:58:14 PM 37.1700 -108.3220 251° West 396 456 38,000  Level FlightAware ADS-B
Sun 08:58:59 PM 37.1450 -108.4160 252° West 395 455 38,000  Level FlightAware ADS-B
Sun 08:59:36 PM 37.1270 -108.4820 251° West 393 452 38,000  Level FlightAware ADS-B
Sun 09:00:22 PM 37.0960 -108.5990 252° West 395 455 38,000  Level FlightAware ADS-B
Sun 09:01:01 PM 37.0740 -108.6780 251° West 399 459 38,000  Level FlightAware ADS-B
Sun 09:01:37 PM 37.0560 -108.7430 251° West 399 459 38,000  Level FlightAware ADS-B
Sun 09:02:34 PM 37.0170 -108.8880 251° West 399 459 38,000  Level FlightAware ADS-B
Sun 09:03:13 PM 36.9970 -108.9600 251° West 399 459 38,000  Level FlightAware ADS-B
Sun 09:04:01 PM 36.9720 -109.0500 251° West 399 459 38,000  Level FlightAware ADS-B
Sun 09:04:37 PM 36.9540 -109.1160 251° West 399 459 38,000  Level FlightAware ADS-B
Sun 09:05:14 PM 36.9210 -109.2340 251° West 395 455 38,000  Level FlightAware ADS-B
Sun 09:06:11 PM 36.8870 -109.3550 251° West 391 450 38,000  Level FlightAware ADS-B
Sun 09:07:01 PM 36.8590 -109.4550 251° West 392 451 38,000  Level FlightAware ADS-B
Sun 09:07:50 PM 36.8330 -109.5430 250° West 392 451 38,000  Level FlightAware ADS-B
Sun 09:08:26 PM 36.8140 -109.6090 250° West 392 451 38,000  Level FlightAware ADS-B
Sun 09:09:12 PM 36.7900 -109.6920 250° West 392 451 38,000  Level FlightAware ADS-B
Sun 09:09:48 PM 36.7710 -109.7570 250° West 392 451 38,000  Level FlightAware ADS-B
Sun 09:10:24 PM 36.7520 -109.8220 250° West 392 451 38,000  Level FlightAware ADS-B
Sun 09:11:13 PM 36.7260 -109.9110 250° West 392 451 38,000  Level FlightAware ADS-B
Sun 09:11:49 PM 36.7070 -109.9760 250° West 392 451 38,000  Level FlightAware ADS-B
Sun 09:12:43 PM 36.5300 -110.1180 213° Southwest 397 457 38,000  Level FlightAware ADS-B
Sun 09:13:25 PM 36.4870 -110.1990 237° Southwest 399 459 38,000  Level FlightAware ADS-B
Sun 09:14:06 PM 36.4480 -110.2730 237° Southwest 399 459 38,000  Level FlightAware ADS-B
Sun 09:14:49 PM 36.4160 -110.3670 247° West 405 466 38,000  Level FlightAware ADS-B
Sun 09:15:31 PM 36.3940 -110.4630 254° West 407 468 38,000  Level FlightAware ADS-B
Sun 09:16:15 PM 36.3710 -110.5610 254° West 410 472 38,000  Level FlightAware ADS-B
Sun 09:16:55 PM 36.3500 -110.6520 254° West 407 468 38,000  Level FlightAware ADS-B
Sun 09:17:34 PM 36.3300 -110.7370 254° West 404 465 38,000  Level FlightAware ADS-B
Sun 09:18:19 PM 36.3060 -110.8370 253° West 404 465 38,000  Level FlightAware ADS-B
Sun 09:18:59 PM 36.2840 -110.9270 253° West 404 465 38,000  Level FlightAware ADS-B
Sun 09:19:39 PM 36.2630 -111.0160 254° West 404 465 38,000  Level FlightAware ADS-B
Sun 09:20:25 PM 36.2380 -111.1180 253° West 402 463 38,000  Level FlightAware ADS-B
Sun 09:21:09 PM 36.2150 -111.2150 254° West 399 459 38,000  Level FlightAware ADS-B
Sun 09:21:49 PM 36.1940 -111.3000 253° West 398 458 38,000  Level FlightAware ADS-B
Sun 09:22:33 PM 36.1670 -111.3960 251° West 396 456 38,000  Level FlightAware ADS-B
Sun 09:23:13 PM 36.1400 -111.4790 248° West 397 457 38,000  Level FlightAware ADS-B
Sun 09:23:47 PM 36.1160 -111.5500 247° West 398 458 38,000  Level FlightAware ADS-B
Sun 09:24:31 PM 36.0860 -111.6420 248° West 397 457 38,000  Level FlightAware ADS-B
Sun 09:25:11 PM 36.0570 -111.7270 247° West 398 458 38,000  Level FlightAware ADS-B
Sun 09:25:47 PM 36.0330 -111.8010 248° West 400 460 38,000  Level FlightAware ADS-B
Sun 09:26:31 PM 36.0020 -111.8930 247° West 398 458 38,000  Level FlightAware ADS-B
Sun 09:27:11 PM 35.9740 -111.9780 248° West 400 460 38,000  Level FlightAware ADS-B
Sun 09:27:55 PM 35.9430 -112.0710 248° West 399 459 38,000  Level FlightAware ADS-B
Sun 09:28:35 PM 35.9140 -112.1550 247° West 400 460 38,000  Level FlightAware ADS-B
Sun 09:29:15 PM 35.8860 -112.2390 248° West 401 461 38,000  Level FlightAware ADS-B
Sun 09:29:59 PM 35.8540 -112.3340 247° West 403 464 38,000  Level FlightAware ADS-B
Sun 09:30:37 PM 35.8270 -112.4130 247° West 404 465 38,000  Level FlightAware ADS-B
Sun 09:31:16 PM 35.7990 -112.4950 247° West 403 464 38,000  Level FlightAware ADS-B
Sun 09:31:57 PM 35.7690 -112.5830 247° West 404 465 38,000  Level FlightAware ADS-B
Sun 09:32:37 PM 35.7410 -112.6670 248° West 402 463 38,000  Level FlightAware ADS-B
Sun 09:33:13 PM 35.7140 -112.7450 247° West 404 465 38,000  Level FlightAware ADS-B
Sun 09:33:57 PM 35.6830 -112.8360 247° West 406 467 38,000  Level FlightAware ADS-B
Sun 09:34:37 PM 35.6530 -112.9220 247° West 409 471 38,000  Level FlightAware ADS-B
Sun 09:35:22 PM 35.6200 -113.0170 247° West 410 472 38,000  Level FlightAware ADS-B
Sun 09:36:01 PM 35.5910 -113.1010 247° West 408 470 38,000  Level FlightAware ADS-B
Sun 09:36:45 PM 35.5590 -113.1940 247° West 407 468 38,000  Level FlightAware ADS-B
Sun 09:37:25 PM 35.5290 -113.2800 247° West 406 467 38,000  Level FlightAware ADS-B
Sun 09:37:59 PM 35.5030 -113.3530 246° West 405 466 38,000  Level FlightAware ADS-B
Sun 09:38:43 PM 35.4710 -113.4460 247° West 404 465 38,000  Level FlightAware ADS-B
Sun 09:39:27 PM 35.4390 -113.5370 247° West 402 463 38,000  Level FlightAware ADS-B
Sun 09:40:09 PM 35.4070 -113.6260 246° West 405 466 38,000  Level FlightAware ADS-B
Sun 09:40:47 PM 35.3790 -113.7050 247° West 407 468 38,000  Level FlightAware ADS-B
Sun 09:41:31 PM 35.3460 -113.7980 247° West 408 470 38,000  Level FlightAware ADS-B
Sun 09:42:15 PM 35.3130 -113.8910 247° West 409 471 38,000  Level FlightAware ADS-B
Sun 09:42:54 PM 35.2840 -113.9730 247° West 409 471 38,000  Level FlightAware ADS-B
Sun 09:43:37 PM 35.2510 -114.0650 246° West 410 472 38,000  Level FlightAware ADS-B
Sun 09:44:20 PM 35.2180 -114.1570 246° West 411 473 38,000  Level FlightAware ADS-B
Sun 09:44:58 PM 35.1900 -114.2360 247° West 412 474 38,000  Level FlightAware ADS-B
Sun 09:45:41 PM 35.1690 -114.3350 255° West 423 487 38,000  Level FlightAware ADS-B
Sun 09:46:24 PM 35.1950 -114.4290 289° West 440 506 38,000  Level FlightAware ADS-B
Sun 09:46:37 PM 35.2160 -114.4550 315° West 449 517 38,000  Level FlightAware ADS-B
Sun 09:47:13 PM 35.2870 -114.4850 341° North 477 549 38,000  Level FlightAware ADS-B
Sun 09:47:41 PM 35.3470 -114.4660 14° North 485 558 38,000  Level FlightAware ADS-B
Sun 09:47:57 PM 35.3770 -114.4390 36° Northeast 484 557 38,000  Level FlightAware ADS-B
Sun 09:48:26 PM 35.4140 -114.3760 54° Northeast 474 545 38,000  Level FlightAware ADS-B
Sun 09:49:21 PM 35.4170 -114.2400 88° East 436 502 38,000  Level FlightAware ADS-B
Sun 09:49:49 PM 35.3870 -114.1880 125° Southeast 412 474 38,000  Level FlightAware ADS-B
Sun 09:50:02 PM 35.3660 -114.1690 144° Southeast 400 460 38,000  Level FlightAware ADS-B
Sun 09:50:29 PM 35.3190 -114.1530 164° South 384 442 38,000  Level FlightAware ADS-B
Sun 09:51:13 PM 35.2450 -114.1770 195° South 375 432 38,000  Level FlightAware ADS-B
Sun 09:51:45 PM 35.1930 -114.2030 202° Southwest 375 432 38,000  Level FlightAware ADS-B
Sun 09:52:25 PM 35.1320 -114.2330 202° Southwest 373 429 38,000  Level FlightAware ADS-B
Sun 09:53:11 PM 35.0560 -114.2700 202° Southwest 373 429 38,000  Level FlightAware ADS-B
Sun 09:53:49 PM 34.9980 -114.2990 202° Southwest 374 430 38,000  Level FlightAware ADS-B
Sun 09:54:13 PM 34.9620 -114.3250 211° Southwest 373 429 38,000  Level FlightAware ADS-B
Sun 09:54:29 PM 34.9480 -114.3530 239° Southwest 381 438 38,000  Level FlightAware ADS-B
Sun 09:55:07 PM 34.9240 -114.4340 250° West 398 458 38,000  Level FlightAware ADS-B
Sun 09:55:51 PM 34.8960 -114.5310 251° West 409 471 38,000  Level FlightAware ADS-B
Sun 09:56:31 PM 34.8710 -114.6190 251° West 411 473 38,000  Level FlightAware ADS-B
Sun 09:57:18 PM 34.8410 -114.7200 250° West 413 475 38,000  Level FlightAware ADS-B
Sun 09:57:55 PM 34.8170 -114.8010 250° West 414 476 38,000  Level FlightAware ADS-B
Sun 09:58:43 PM 34.7860 -114.9070 250° West 414 476 38,000  Level FlightAware ADS-B
Sun 09:59:23 PM 34.7600 -114.9950 250° West 415 478 38,000  Level FlightAware ADS-B
Sun 10:01:44 PM 34.7750 -115.2960 274° West 433 498 38,000 -161 Level FlightAware ADS-B
Sun 10:02:29 PM 34.8140 -115.4310 289° West 424 488 37,500 -828 Descending FlightAware ADS-B
Sun 10:03:11 PM 34.7770 -115.5180 243° Southwest 424 488 36,800 -1,000 Descending FlightAware ADS-B
Sun 10:03:53 PM 34.7400 -115.6110 244° Southwest 418 481 36,100 -1,053 Descending FlightAware ADS-B
Sun 10:05:05 PM 34.6800 -115.7550 243° Southwest 400 460 34,800 -1,078 Descending FlightAware ADS-B
Sun 10:06:01 PM 34.6340 -115.8670 243° Southwest 389 448 33,800 -1,021 Descending FlightAware ADS-B
Sun 10:06:39 PM 34.6020 -115.9430 243° Southwest 387 445 33,200 -659 Descending FlightAware ADS-B
Sun 10:07:23 PM 34.5710 -116.0170 243° Southwest 385 443 32,900 -1,023 Descending FlightAware ADS-B
Sun 10:08:07 PM 34.5310 -116.1130 243° Southwest 387 445 31,700 -1,364 Descending FlightAware ADS-B
Sun 10:08:51 PM 34.4970 -116.1950 243° Southwest 377 434 30,900 -1,000 Descending FlightAware ADS-B
Sun 10:09:25 PM 34.4760 -116.2640 250° West 380 437 30,400 -975 Descending FlightAware ADS-B
Sun 10:10:11 PM 34.4800 -116.3610 273° West 381 438 29,600 -1,000 Descending FlightAware ADS-B
Sun 10:10:49 PM 34.4870 -116.4430 276° West 376 433 29,000 -975 Descending FlightAware ADS-B
Sun 10:11:31 PM 34.4690 -116.5220 255° West 362 417 28,300 -1,024 Descending FlightAware ADS-B
Sun 10:12:11 PM 34.4270 -116.5860 232° Southwest 354 407 27,600 -1,105 Descending FlightAware ADS-B
Sun 10:12:47 PM 34.3930 -116.6420 234° Southwest 349 402 26,900 -1,091 Descending FlightAware ADS-B
Sun 10:13:28 PM 34.3540 -116.7070 234° Southwest 345 397 26,200 -1,350 Descending FlightAware ADS-B
Sun 10:14:07 PM 34.3180 -116.7670 234° Southwest 338 389 25,100 -1,724 Descending FlightAware ADS-B
Sun 10:14:55 PM 34.2730 -116.8390 233° Southwest 335 386 23,700 -1,432 Descending FlightAware ADS-B
Sun 10:15:35 PM 34.2340 -116.9040 234° Southwest 366 421 23,000 -1,425 Descending FlightAware ADS-B
Sun 10:16:15 PM 34.1940 -116.9690 233° Southwest 364 419 21,800 -1,857 Descending FlightAware ADS-B
Sun 10:16:59 PM 34.1500 -117.0400 233° Southwest 358 412 20,400 -1,929 Descending FlightAware ADS-B
Sun 10:17:39 PM 34.1110 -117.1040 234° Southwest 351 404 19,100 -1,256 Descending FlightAware ADS-B
Sun 10:18:25 PM 34.0770 -117.1790 241° Southwest 318 366 18,600 -1,326 Descending FlightAware ADS-B
Sun 10:19:05 PM 34.0510 -117.2420 244° Southwest 318 366 17,200 -2,077 Descending FlightAware ADS-B
Sun 10:19:43 PM 34.0430 -117.3090 262° West 317 365 15,900 -2,049 Descending FlightAware ADS-B
Sun 10:20:27 PM 34.0350 -117.3850 263° West 315 362 14,400 -1,814 Descending FlightAware ADS-B
Sun 10:21:09 PM 34.0290 -117.4570 264° West 306 352 13,300 -1,571 Descending FlightAware ADS-B
Sun 10:21:51 PM 34.0320 -117.5280 273° West 302 348 12,200 -1,643 Descending FlightAware ADS-B
Sun 10:22:33 PM 34.0320 -117.5970 270° West 306 352 11,000 -1,500 Descending FlightAware ADS-B
Sun 10:23:11 PM 34.0260 -117.6610 264° West 296 341 10,200 -1,029 Descending FlightAware ADS-B
Sun 10:23:43 PM 34.0200 -117.7160 263° West 286 329 9,800 -1,000 Descending FlightAware ADS-B
Sun 10:24:11 PM 34.0160 -117.7590 264° West 274 315 9,200 -1,245 Descending FlightAware ADS-B
Sun 10:24:36 PM 34.0130 -117.7940 264° West 268 308 8,700 -923 Descending FlightAware ADS-B
Sun 10:25:03 PM 34.0090 -117.8350 263° West 249 287 8,400 -545 Descending FlightAware ADS-B
Sun 10:25:31 PM 34.0050 -117.8710 262° West 229 264 8,200 -536 Descending FlightAware ADS-B
Sun 10:25:59 PM 34.0020 -117.9050 264° West 210 242 7,900 -643 Descending FlightAware ADS-B
Sun 10:26:27 PM 33.9990 -117.9370 264° West 198 228 7,600 -875 Descending FlightAware ADS-B
Sun 10:26:47 PM 33.9960 -117.9590 261° West 195 224 7,200 -1,000 Descending FlightAware ADS-B
Sun 10:27:15 PM 33.9940 -117.9880 265° West 191 220 6,800 -964 Descending FlightAware ADS-B
Sun 10:27:43 PM 33.9910 -118.0180 263° West 185 213 6,300 -1,071 Descending FlightAware ADS-B
Sun 10:28:11 PM 33.9880 -118.0470 263° West 185 213 5,800 -1,038 Descending FlightAware ADS-B
Sun 10:28:35 PM 33.9850 -118.0710 261° West 183 211 5,400 -947 Descending FlightAware ADS-B
Sun 10:29:08 PM 33.9820 -118.1030 264° West 182 209 4,900 -800 Descending FlightAware ADS-B
Sun 10:29:35 PM 33.9800 -118.1300 265° West 184 212 4,600 -873 Descending FlightAware ADS-B
Sun 10:30:03 PM 33.9760 -118.1600 261° West 188 216 4,100 -1,071 Descending FlightAware ADS-B
Sun 10:30:31 PM 33.9740 -118.1890 265° West 189 217 3,600 -1,059 Descending FlightAware ADS-B
Sun 10:30:54 PM 33.9710 -118.2120 261° West 189 217 3,200 -1,000 Descending FlightAware ADS-B
Sun 10:31:25 PM 33.9680 -118.2450 264° West 188 216 2,700 -941 Descending FlightAware ADS-B
Sun 10:31:45 PM 33.9660 -118.2650 263° West 186 214 2,400 -955 Descending FlightAware ADS-B
Sun 10:32:09 PM 33.9630 -118.2910 262° West 183 211 2,000 -1,000 Descending FlightAware ADS-B
Sun 10:32:45 PM 33.9600 -118.3270 264° West 166 191 1,400 -871 Descending FlightAware ADS-B
Sun 10:33:11 PM 33.9580 -118.3470 263° West 146 168 1,100 -808 Descending FlightAware ADS-B
Sun 10:33:37 PM 33.9560 -118.3690 264° West 144 166 700 -783 Descending FlightAware ADS-B
Sun 10:33:57 PM 33.9540 -118.3850 261° West 145 167 500 -667 Descending FlightAware ADS-B
Sun 10:34:13 PM 33.9520 -118.3980 259° West 147 169 300 -290 Descending FlightAware ADS-B
Sun 10:34:59 PM 33.9503 -118.4269 259° West 153 176 200 -130 Descending Los Angeles Center
Sun 10:36:00 PM 33.9425 -118.4081 259° West  Level Estimated
Sun 10:43:00 PM 33.9425 -118.4081 259° West  Level Estimated

Login

Don't have an account? Register now (free) for customized features, flight alerts, and more!